Time;durP1;ratioP1;P1;durP2;ratioP2;P2;SDS_P1;SDS_P2;PMS_P1;PMS_P2;Temp;Humidity;BMP_temperature;BMP_pressure;BME280_temperature;BME280_humidity;BME280_pressure;Samples;Min_cycle;Max_cycle;Signal;HPM_P1;HPM_P2
2022/08/24 00:00:34;;;;;;;33.17;29.67;;;20.30;99.90;;;;;;4967673;28;38314;-58
2022/08/24 00:03:01;;;;;;;36.35;32.50;;;20.30;99.90;;;;;;4965944;28;38586;-58
2022/08/24 00:05:30;;;;;;;25.63;22.98;;;20.30;99.90;;;;;;4959737;28;35573;-58
2022/08/24 00:07:57;;;;;;;22.92;20.63;;;20.30;99.90;;;;;;4968371;28;37509;-59
2022/08/24 00:10:25;;;;;;;22.20;17.45;;;20.20;99.90;;;;;;4968238;28;39359;-58
2022/08/24 00:12:52;;;;;;;22.80;18.73;;;20.20;99.90;;;;;;4968387;28;39142;-58
2022/08/24 00:15:20;;;;;;;17.50;15.80;;;20.10;99.90;;;;;;4969199;28;36609;-58
2022/08/24 00:17:47;;;;;;;15.98;14.38;;;20.10;99.90;;;;;;4969757;28;37684;-58
2022/08/24 00:20:14;;;;;;;17.08;15.00;;;20.10;99.90;;;;;;4968244;28;38031;-58
2022/08/24 00:22:43;;;;;;;16.02;14.43;;;20.00;99.90;;;;;;4968650;28;37097;-58
2022/08/24 00:25:12;;;;;;;17.73;15.82;;;20.00;99.90;;;;;;4969981;28;36718;-58
2022/08/24 00:27:40;;;;;;;20.83;16.50;;;20.00;99.90;;;;;;4969035;28;38936;-59
2022/08/24 00:30:14;;;;;;;19.30;16.85;;;20.00;99.90;;;;;;4962505;28;38877;-58
2022/08/24 00:32:41;;;;;;;23.48;20.98;;;19.90;99.90;;;;;;4966593;28;37559;-58
2022/08/24 00:35:10;;;;;;;22.65;20.38;;;19.90;99.90;;;;;;4967154;28;36799;-58
2022/08/24 00:37:39;;;;;;;25.70;23.13;;;19.80;99.90;;;;;;4970909;28;37756;-58
2022/08/24 00:40:12;;;;;;;25.65;22.95;;;19.80;99.90;;;;;;4971110;28;37655;-58
2022/08/24 00:42:41;;;;;;;25.75;23.25;;;19.80;99.90;;;;;;4970442;28;39817;-58
2022/08/24 00:45:10;;;;;;;24.63;21.98;;;19.80;99.90;;;;;;4971099;28;37020;-58
2022/08/24 00:47:49;;;;;;;26.88;23.98;;;19.80;99.90;;;;;;5125806;27;20433;-56
2022/08/24 00:50:22;;;;;;;29.25;26.25;;;19.90;99.90;;;;;;5111602;27;37225;-58
2022/08/24 00:52:54;;;;;;;26.05;23.40;;;19.90;99.90;;;;;;5112583;27;38335;-57
2022/08/24 00:55:26;;;;;;;28.55;25.77;;;19.90;99.90;;;;;;5112629;27;38595;-58
2022/08/24 00:57:59;;;;;;;30.23;27.13;;;19.90;99.90;;;;;;5111997;27;36732;-58
2022/08/24 01:00:30;;;;;;;;;;;19.90;99.90;;;;;;5113756;27;37759;-57
2022/08/24 01:03:03;;;;;;;29.77;26.75;;;19.90;99.90;;;;;;5113212;27;36828;-57
2022/08/24 01:05:30;;;;;;;;;;;19.80;99.90;;;;;;5113350;27;38539;-58
2022/08/24 01:07:58;;;;;;;28.35;25.65;;;19.80;99.90;;;;;;5112739;27;38250;-58
2022/08/24 01:10:29;;;;;;;30.25;27.05;;;19.80;99.90;;;;;;5112646;27;36130;-58
2022/08/24 01:12:59;;;;;;;27.92;25.10;;;19.80;99.90;;;;;;5113268;27;37803;-58
2022/08/24 01:15:28;;;;;;;28.75;25.73;;;19.80;99.90;;;;;;5112721;27;38039;-57
2022/08/24 01:20:45;;;;;;;29.80;24.52;;;19.80;99.90;;;;;;5112610;27;40958;-58
2022/08/24 01:23:26;;;;;;;25.08;22.58;;;19.70;99.90;;;;;;5111816;27;36821;-57
2022/08/24 01:25:53;;;;;;;21.13;18.92;;;19.70;99.90;;;;;;5113792;27;36435;-57
2022/08/24 01:28:21;;;;;;;19.40;17.50;;;19.70;99.90;;;;;;5111895;27;37288;-59
2022/08/24 01:30:48;;;;;;;20.10;18.05;;;19.80;99.90;;;;;;5112343;27;37251;-57
2022/08/24 01:33:23;;;;;;;18.92;17.10;;;19.70;99.90;;;;;;5111718;27;37397;-57
2022/08/24 01:35:54;;;;;;;21.75;18.38;;;19.70;99.90;;;;;;5111924;27;38583;-57
2022/08/24 01:38:22;;;;;;;21.25;19.15;;;19.70;99.90;;;;;;5111869;27;36947;-57
2022/08/24 01:40:56;;;;;;;19.17;17.27;;;19.80;99.90;;;;;;5112035;27;37729;-58
2022/08/24 01:43:24;;;;;;;21.65;19.48;;;19.70;99.90;;;;;;5113333;27;37952;-57
2022/08/24 01:45:52;;;;;;;23.92;21.52;;;19.70;99.90;;;;;;5112152;27;38457;-58
2022/08/24 01:48:20;;;;;;;23.33;21.00;;;19.80;99.90;;;;;;5114383;27;37080;-57
2022/08/24 01:50:47;;;;;;;12.23;10.18;;;19.70;99.90;;;;;;5112936;27;37099;-57
2022/08/24 01:53:15;;;;;;;7.63;6.45;;;19.70;99.90;;;;;;5114848;27;37063;-57
2022/08/24 01:55:42;;;;;;;5.72;4.28;;;19.70;99.90;;;;;;5114938;27;38296;-57
2022/08/24 01:58:12;;;;;;;6.40;4.20;;;19.70;99.90;;;;;;5105471;27;36012;-58
2022/08/24 02:00:39;;;;;;;6.03;4.38;;;19.60;99.90;;;;;;5100793;27;37502;-57
2022/08/24 02:03:07;;;;;;;5.70;4.50;;;19.60;99.90;;;;;;5100969;27;36579;-57
2022/08/24 02:05:35;;;;;;;6.95;5.57;;;19.50;99.90;;;;;;5100649;27;37459;-58
2022/08/24 02:08:02;;;;;;;7.03;5.47;;;19.50;99.90;;;;;;5099107;27;37540;-58
2022/08/24 02:10:30;;;;;;;5.95;4.63;;;19.50;99.90;;;;;;5101678;27;36385;-57
2022/08/24 02:12:58;;;;;;;7.45;5.70;;;19.50;99.90;;;;;;5101058;27;36393;-57
2022/08/24 02:15:32;;;;;;;7.90;6.22;;;19.50;99.90;;;;;;5102111;27;36476;-57
2022/08/24 02:18:00;;;;;;;8.18;7.22;;;19.50;99.90;;;;;;5100052;27;37433;-58
2022/08/24 02:20:29;;;;;;;11.15;9.95;;;19.50;99.90;;;;;;5100695;27;37525;-57
2022/08/24 02:22:56;;;;;;;15.07;12.18;;;19.40;99.90;;;;;;5101090;27;37398;-57
2022/08/24 02:25:25;;;;;;;11.93;10.60;;;19.40;99.90;;;;;;5101036;27;37597;-58
2022/08/24 02:27:52;;;;;;;7.70;6.90;;;19.40;99.90;;;;;;5100337;27;38271;-57
2022/08/24 02:30:20;;;;;;;9.25;8.27;;;19.40;99.90;;;;;;5100873;27;35713;-58
2022/08/24 02:32:48;;;;;;;15.85;14.27;;;19.40;99.90;;;;;;5101049;27;37492;-59
2022/08/24 02:35:16;;;;;;;18.35;16.55;;;19.30;99.90;;;;;;5101531;27;37712;-57
2022/08/24 02:37:44;;;;;;;10.60;8.50;;;19.30;99.90;;;;;;5099626;27;37051;-58
2022/08/24 02:40:12;;;;;;;8.23;6.82;;;19.30;99.90;;;;;;5100680;27;36733;-58
2022/08/24 02:42:40;;;;;;;9.80;8.70;;;19.30;99.90;;;;;;5099357;27;37993;-58
2022/08/24 02:45:09;;;;;;;9.30;8.25;;;19.20;99.90;;;;;;5099074;27;36318;-58
2022/08/24 02:47:37;;;;;;;24.38;9.38;;;19.20;99.90;;;;;;5099768;27;36983;-59
2022/08/24 02:50:10;;;;;;;14.25;8.85;;;19.10;99.90;;;;;;5099634;27;36822;-59
2022/08/24 02:52:38;;;;;;;;;;;19.00;99.90;;;;;;5101315;27;39082;-58
2022/08/24 02:55:07;;;;;;;8.73;7.28;;;19.00;99.90;;;;;;5100332;27;38033;-58
2022/08/24 02:57:34;;;;;;;8.40;7.60;;;19.00;99.90;;;;;;5099966;27;37089;-59
2022/08/24 03:00:02;;;;;;;10.00;9.00;;;19.00;99.90;;;;;;5100593;27;36697;-58
2022/08/24 03:02:29;;;;;;;11.23;9.15;;;18.90;99.90;;;;;;5100787;27;36590;-58
2022/08/24 03:04:56;;;;;;;15.20;9.00;;;18.90;99.90;;;;;;5099300;27;37459;-58
2022/08/24 03:07:25;;;;;;;9.38;8.18;;;18.90;99.90;;;;;;5100352;27;36605;-58
2022/08/24 03:09:52;;;;;;;8.25;6.80;;;18.80;99.90;;;;;;5099816;27;37064;-58
2022/08/24 03:12:20;;;;;;;12.77;7.57;;;18.80;99.90;;;;;;5100717;27;36859;-58
2022/08/24 03:14:47;;;;;;;8.50;6.97;;;18.80;99.90;;;;;;5100755;27;38574;-58
2022/08/24 03:17:14;;;;;;;9.23;8.05;;;18.80;99.90;;;;;;5100312;27;36118;-58
2022/08/24 03:19:42;;;;;;;8.35;7.22;;;18.70;99.90;;;;;;5100554;27;37745;-58
2022/08/24 03:22:09;;;;;;;10.30;7.70;;;18.70;99.90;;;;;;5100589;27;37411;-58
2022/08/24 03:24:38;;;;;;;16.65;8.63;;;18.70;99.90;;;;;;5100654;27;39954;-59
2022/08/24 03:27:05;;;;;;;13.85;9.18;;;18.70;99.90;;;;;;5099977;27;36021;-58
2022/08/24 03:29:34;;;;;;;12.18;8.52;;;18.70;99.90;;;;;;5099640;27;38113;-61
2022/08/24 03:32:01;;;;;;;25.85;10.00;;;18.60;99.90;;;;;;5100350;27;36482;-61
2022/08/24 03:34:28;;;;;;;9.88;8.93;;;18.60;99.90;;;;;;5100262;27;37484;-61
2022/08/24 03:36:55;;;;;;;7.97;7.18;;;18.60;99.90;;;;;;5099205;27;36510;-60
2022/08/24 03:39:23;;;;;;;9.88;7.70;;;18.60;99.90;;;;;;5099767;27;37793;-61
2022/08/24 03:41:51;;;;;;;9.00;8.10;;;18.60;99.90;;;;;;5100039;27;35580;-61
2022/08/24 03:44:19;;;;;;;10.25;8.02;;;18.60;99.90;;;;;;5099212;27;37350;-61
2022/08/24 03:46:46;;;;;;;6.72;5.95;;;18.60;99.90;;;;;;5100572;27;38814;-60
2022/08/24 03:49:14;;;;;;;5.88;5.10;;;18.60;99.90;;;;;;5100053;27;38109;-61
2022/08/24 03:51:41;;;;;;;5.38;4.78;;;18.60;99.90;;;;;;5099618;27;36578;-61
2022/08/24 03:54:11;;;;;;;6.07;5.03;;;18.60;99.90;;;;;;5099685;27;37613;-61
2022/08/24 03:56:39;;;;;;;7.38;5.88;;;18.60;99.90;;;;;;5100294;27;37471;-61
2022/08/24 03:59:09;;;;;;;6.85;5.32;;;18.50;99.90;;;;;;5100751;27;36926;-61
2022/08/24 04:01:37;;;;;;;13.57;7.18;;;18.50;99.90;;;;;;5098524;27;37955;-61
2022/08/24 04:04:05;;;;;;;10.05;8.43;;;18.50;99.90;;;;;;5099156;27;37608;-61
2022/08/24 04:06:32;;;;;;;11.40;9.20;;;18.50;99.90;;;;;;5100985;27;36993;-60
2022/08/24 04:08:59;;;;;;;16.15;10.43;;;18.50;99.90;;;;;;5098663;27;37372;-61
2022/08/24 04:11:29;;;;;;;13.85;10.80;;;18.50;99.90;;;;;;5098670;27;36977;-60
2022/08/24 04:13:58;;;;;;;14.90;11.95;;;18.50;99.90;;;;;;5100076;27;38620;-61
2022/08/24 04:16:28;;;;;;;16.42;11.73;;;18.60;99.90;;;;;;5100157;27;37570;-60
2022/08/24 04:18:57;;;;;;;16.40;11.63;;;18.60;99.90;;;;;;5098367;27;36158;-61
2022/08/24 04:21:27;;;;;;;12.88;8.95;;;18.60;99.90;;;;;;5098438;27;36766;-60
2022/08/24 04:23:55;;;;;;;12.65;7.88;;;18.60;99.90;;;;;;5097739;27;36473;-60
2022/08/24 04:26:25;;;;;;;9.60;6.78;;;18.60;99.90;;;;;;5098117;27;36941;-61
2022/08/24 04:28:53;;;;;;;10.70;7.13;;;18.60;99.90;;;;;;5099228;27;36723;-60
2022/08/24 04:31:21;;;;;;;7.93;5.28;;;18.60;99.90;;;;;;5098716;27;35268;-61
2022/08/24 04:33:49;;;;;;;8.85;4.85;;;18.60;99.90;;;;;;5097997;27;38920;-61
2022/08/24 04:36:19;;;;;;;8.32;5.43;;;18.60;99.90;;;;;;5099296;27;35914;-61
2022/08/24 04:38:47;;;;;;;7.60;5.63;;;18.60;99.90;;;;;;5098412;27;36829;-61
2022/08/24 04:41:18;;;;;;;8.10;5.57;;;18.70;99.90;;;;;;5098092;27;37387;-61
2022/08/24 04:43:47;;;;;;;8.80;6.28;;;18.70;99.90;;;;;;5099057;27;37345;-61
2022/08/24 04:46:16;;;;;;;9.30;6.93;;;18.70;99.90;;;;;;5098115;27;37037;-61
2022/08/24 04:48:46;;;;;;;10.38;9.27;;;18.70;99.90;;;;;;5098962;27;36785;-61
2022/08/24 04:51:17;;;;;;;9.00;6.28;;;18.70;99.90;;;;;;5098690;27;36565;-61
2022/08/24 04:53:45;;;;;;;5.80;4.10;;;18.70;99.90;;;;;;5098730;27;37117;-60
2022/08/24 04:56:15;;;;;;;4.78;3.85;;;18.70;99.90;;;;;;5098901;27;38947;-61
2022/08/24 04:58:43;;;;;;;6.28;4.78;;;18.80;99.90;;;;;;5098615;27;35895;-61
2022/08/24 05:01:15;;;;;;;8.35;6.93;;;18.80;99.90;;;;;;5097353;27;37081;-60
2022/08/24 05:03:44;;;;;;;7.90;6.97;;;18.80;99.90;;;;;;5097019;27;36532;-60
2022/08/24 05:06:14;;;;;;;10.52;8.07;;;18.80;99.90;;;;;;5097482;27;37466;-60
2022/08/24 05:08:45;;;;;;;9.95;7.82;;;18.90;99.90;;;;;;5098422;27;37380;-60
2022/08/24 05:11:12;;;;;;;12.23;9.25;;;18.90;99.90;;;;;;5096816;27;37196;-61
2022/08/24 05:13:40;;;;;;;9.55;8.07;;;19.00;99.90;;;;;;5098089;27;37431;-61
2022/08/24 05:16:10;;;;;;;9.90;8.90;;;19.00;99.90;;;;;;5098807;27;36128;-61
2022/08/24 05:18:39;;;;;;;18.05;16.15;;;19.10;99.90;;;;;;5098319;27;37677;-60
2022/08/24 05:21:08;;;;;;;25.45;22.65;;;19.10;99.90;;;;;;5097343;27;37125;-60
2022/08/24 05:23:35;;;;;;;26.30;23.60;;;19.20;99.90;;;;;;5099086;27;37690;-61
2022/08/24 05:26:09;;;;;;;25.90;22.92;;;19.30;99.90;;;;;;5097158;27;38358;-60
2022/08/24 05:28:37;;;;;;;29.60;26.42;;;19.50;99.90;;;;;;5098978;27;36090;-60
2022/08/24 05:31:09;;;;;;;27.75;24.75;;;19.60;99.90;;;;;;5098992;27;36320;-60
2022/08/24 05:33:37;;;;;;;27.55;24.05;;;19.90;99.90;;;;;;5101109;27;37383;-60
2022/08/24 05:36:06;;;;;;;23.20;20.73;;;20.10;99.90;;;;;;5101656;27;39462;-61
2022/08/24 05:38:33;;;;;;;26.13;23.05;;;20.30;99.90;;;;;;5103856;27;36169;-60
2022/08/24 05:41:04;;;;;;;21.70;19.48;;;20.30;99.90;;;;;;5106176;27;37067;-60
2022/08/24 05:43:33;;;;;;;30.38;22.60;;;20.40;99.90;;;;;;5104196;27;38334;-60
2022/08/24 05:46:00;;;;;;;26.05;22.10;;;20.40;99.90;;;;;;5104612;27;37081;-60
2022/08/24 05:48:27;;;;;;;26.73;23.52;;;20.50;99.90;;;;;;5101815;27;37077;-61
2022/08/24 05:50:56;;;;;;;26.77;23.60;;;20.50;99.90;;;;;;5104350;27;38104;-61
2022/08/24 05:53:24;;;;;;;26.05;21.70;;;20.50;99.90;;;;;;5100294;27;39381;-60
2022/08/24 05:55:52;;;;;;;22.90;20.48;;;20.60;99.90;;;;;;5104433;27;37712;-61
2022/08/24 05:58:19;;;;;;;25.52;22.88;;;20.60;99.90;;;;;;5102288;27;38455;-61
2022/08/24 06:00:49;;;;;;;26.05;23.48;;;20.60;99.90;;;;;;5103223;27;35769;-61
2022/08/24 06:03:16;;;;;;;24.27;21.75;;;20.60;99.90;;;;;;5102093;27;37433;-61
2022/08/24 06:05:46;;;;;;;23.23;20.48;;;20.70;99.90;;;;;;5103786;27;36090;-61
2022/08/24 06:08:13;;;;;;;24.90;22.30;;;20.70;99.90;;;;;;5104083;27;37375;-62
2022/08/24 06:10:43;;;;;;;24.25;21.75;;;20.70;99.90;;;;;;5104092;27;36607;-61
2022/08/24 06:13:11;;;;;;;26.85;23.92;;;20.80;99.90;;;;;;5103858;27;37289;-61
2022/08/24 06:15:40;;;;;;;25.98;22.73;;;20.80;99.90;;;;;;5103772;27;38305;-61
2022/08/24 06:18:09;;;;;;;29.08;24.75;;;20.80;99.90;;;;;;5103471;27;37584;-61
2022/08/24 06:20:40;;;;;;;25.00;21.55;;;20.80;99.90;;;;;;5099099;27;37550;-59
2022/08/24 06:23:09;;;;;;;23.15;20.70;;;20.80;99.90;;;;;;5102580;27;37521;-59
2022/08/24 06:28:24;;;;;;;24.33;21.75;;;21.00;99.90;;;;;;5103585;27;38119;-59
2022/08/24 06:31:02;;;;;;;24.83;22.15;;;21.10;99.90;;;;;;5102672;27;36212;-60
2022/08/24 06:33:31;;;;;;;25.02;22.40;;;21.20;99.90;;;;;;5103026;27;37593;-61
2022/08/24 06:35:58;;;;;;;26.73;21.13;;;21.20;99.90;;;;;;5103349;27;38040;-60
2022/08/24 06:38:25;;;;;;;25.27;21.02;;;21.20;99.90;;;;;;5102915;27;37961;-61
2022/08/24 06:40:53;;;;;;;23.33;20.50;;;21.30;99.90;;;;;;5104567;27;35532;-60
2022/08/24 06:43:21;;;;;;;25.17;21.95;;;21.30;99.90;;;;;;5103784;27;38844;-60
2022/08/24 06:45:48;;;;;;;25.77;22.80;;;21.40;99.90;;;;;;5103256;27;37339;-60
2022/08/24 06:48:16;;;;;;;28.63;23.67;;;21.40;99.90;;;;;;5104780;27;38016;-60
2022/08/24 06:50:45;;;;;;;23.60;21.23;;;21.40;99.90;;;;;;5104761;27;37539;-60
2022/08/24 06:53:13;;;;;;;28.83;23.10;;;21.50;99.90;;;;;;5096588;27;38105;-60
2022/08/24 06:55:46;;;;;;;27.98;22.92;;;21.50;99.90;;;;;;5100638;27;36101;-61
2022/08/24 06:58:13;;;;;;;26.65;23.10;;;21.50;99.90;;;;;;5102910;27;37214;-60
2022/08/24 07:00:41;;;;;;;24.33;21.73;;;21.50;99.90;;;;;;5102022;27;35803;-60
2022/08/24 07:03:08;;;;;;;23.63;20.92;;;21.60;99.90;;;;;;5101944;27;37760;-60
2022/08/24 07:05:36;;;;;;;22.90;20.48;;;21.60;99.90;;;;;;5102009;27;37792;-60
2022/08/24 07:08:05;;;;;;;24.90;22.30;;;21.60;99.90;;;;;;5100973;27;35982;-60
2022/08/24 07:10:33;;;;;;;22.67;20.38;;;21.60;99.90;;;;;;5101674;27;38049;-60
2022/08/24 07:13:02;;;;;;;25.17;20.73;;;21.60;99.90;;;;;;5101360;27;37395;-61
2022/08/24 07:15:29;;;;;;;23.90;21.50;;;21.70;99.90;;;;;;5100664;27;37741;-60
2022/08/24 07:17:57;;;;;;;26.20;22.25;;;21.70;99.90;;;;;;5103817;27;35913;-61
2022/08/24 07:20:24;;;;;;;25.60;21.67;;;21.70;99.90;;;;;;5101843;27;36613;-61
2022/08/24 07:22:52;;;;;;;20.75;17.92;;;21.80;99.90;;;;;;5099664;27;37449;-60
2022/08/24 07:25:21;;;;;;;19.00;16.92;;;21.90;99.90;;;;;;5100637;27;37563;-60
2022/08/24 07:27:48;;;;;;;16.75;15.18;;;21.90;99.90;;;;;;5101377;27;35905;-60
2022/08/24 07:30:17;;;;;;;15.68;14.00;;;22.00;99.90;;;;;;5097906;27;37749;-60
2022/08/24 07:32:44;;;;;;;13.18;11.43;;;22.00;99.90;;;;;;5097392;27;37616;-60
2022/08/24 07:35:11;;;;;;;15.43;12.00;;;22.00;99.90;;;;;;5099366;27;37504;-61
2022/08/24 07:37:39;;;;;;;16.15;12.63;;;22.10;99.90;;;;;;5100647;27;36027;-61
2022/08/24 07:40:08;;;;;;;16.20;13.27;;;22.10;99.90;;;;;;5100228;27;37425;-61
2022/08/24 07:42:38;;;;;;;12.25;10.95;;;22.20;99.90;;;;;;5099697;27;40955;-60
2022/08/24 07:45:07;;;;;;;13.00;9.13;;;22.20;99.90;;;;;;5100372;27;37419;-61
2022/08/24 07:47:36;;;;;;;13.35;9.85;;;22.30;99.90;;;;;;5098938;27;36907;-60
2022/08/24 07:50:04;;;;;;;13.55;10.02;;;22.30;99.90;;;;;;5098540;27;36412;-60
2022/08/24 07:52:31;;;;;;;12.63;10.07;;;22.40;99.90;;;;;;5099061;27;37573;-60
2022/08/24 07:54:59;;;;;;;29.45;10.27;;;22.40;99.90;;;;;;5099146;27;36422;-60
2022/08/24 07:57:26;;;;;;;13.65;9.95;;;22.50;99.90;;;;;;5100092;27;36487;-60
2022/08/24 07:59:55;;;;;;;14.23;9.43;;;22.50;99.90;;;;;;5099349;27;36936;-61
2022/08/24 08:02:22;;;;;;;15.15;10.23;;;22.50;99.90;;;;;;5098477;27;37604;-60
2022/08/24 08:04:49;;;;;;;13.48;9.63;;;22.50;99.90;;;;;;5098955;27;36137;-60
2022/08/24 08:07:16;;;;;;;13.90;9.77;;;22.70;99.90;;;;;;5100219;27;36384;-60
2022/08/24 08:09:44;;;;;;;12.27;9.88;;;22.60;99.90;;;;;;5099226;27;36339;-61
2022/08/24 08:12:11;;;;;;;11.25;9.00;;;22.70;99.90;;;;;;5098330;27;37558;-61
2022/08/24 08:14:39;;;;;;;13.60;8.18;;;22.80;99.90;;;;;;5099103;27;37212;-61
2022/08/24 08:17:07;;;;;;;12.07;7.90;;;22.80;99.90;;;;;;5096421;27;35424;-61
2022/08/24 08:19:35;;;;;;;10.10;7.63;;;22.90;99.90;;;;;;5099229;27;35490;-61
2022/08/24 08:24:48;;;;;;;9.63;7.50;;;23.10;99.90;;;;;;5102847;27;38474;-61
2022/08/24 08:27:16;;;;;;;12.85;7.32;;;23.10;99.90;;;;;;5102726;27;36107;-61
2022/08/24 08:29:44;;;;;;;11.57;6.45;;;23.20;99.90;;;;;;5101624;27;36375;-60
2022/08/24 08:32:15;;;;;;;11.27;6.47;;;23.40;99.90;;;;;;5102291;27;38820;-60
2022/08/24 08:34:43;;;;;;;10.32;6.18;;;23.40;99.90;;;;;;5101955;27;37529;-60
2022/08/24 08:37:11;;;;;;;11.77;6.40;;;23.50;99.90;;;;;;5101707;27;37754;-60
2022/08/24 08:39:39;;;;;;;9.13;6.13;;;23.60;99.90;;;;;;5102793;27;37951;-60
2022/08/24 08:42:22;;;;;;;8.85;5.50;;;23.70;99.90;;;;;;5101405;27;38849;-60
2022/08/24 08:44:53;;;;;;;;;;;23.80;99.90;;;;;;5103755;27;37941;-61
2022/08/24 08:47:47;;;;;;;11.38;6.28;;;23.90;99.90;;;;;;5096630;27;36901;-60
2022/08/24 08:50:20;;;;;;;9.07;5.30;;;24.00;99.90;;;;;;5084336;27;37111;-60
2022/08/24 08:53:26;;;;;;;10.15;5.00;;;24.10;99.90;;;;;;5097106;27;38230;-61
2022/08/24 08:56:03;;;;;;;7.35;4.47;;;24.10;99.90;;;;;;5097613;27;37106;-60
2022/08/24 08:58:55;;;;;;;9.48;5.40;;;24.20;99.90;;;;;;5098811;27;37024;-60
2022/08/24 09:01:31;;;;;;;8.57;4.93;;;24.30;99.90;;;;;;5099543;27;36323;-61
2022/08/24 09:04:20;;;;;;;8.52;4.68;;;24.40;99.80;;;;;;5096667;27;36412;-60
2022/08/24 09:07:11;;;;;;;8.27;4.40;;;24.60;99.90;;;;;;5099442;27;37314;-60
2022/08/24 09:10:03;;;;;;;9.27;4.75;;;24.70;99.40;;;;;;5103457;27;38014;-61
2022/08/24 09:12:44;;;;;;;7.75;3.78;;;24.70;99.00;;;;;;5102649;27;36564;-61
2022/08/24 09:15:29;;;;;;;8.65;4.00;;;24.90;99.00;;;;;;5103568;27;38095;-61
2022/08/24 09:18:17;;;;;;;10.35;4.10;;;25.00;98.60;;;;;;5103447;27;37797;-61
2022/08/24 09:20:57;;;;;;;11.57;4.47;;;25.00;98.40;;;;;;5103273;27;35994;-60
2022/08/24 09:23:32;;;;;;;7.43;3.53;;;25.20;98.20;;;;;;5102976;27;36384;-61
2022/08/24 09:26:04;;;;;;;7.15;2.50;;;25.20;97.70;;;;;;5103205;27;36356;-60
2022/08/24 09:28:42;;;;;;;6.65;3.42;;;25.40;97.60;;;;;;5102213;27;36181;-59
2022/08/24 09:31:37;;;;;;;6.90;3.08;;;25.40;97.40;;;;;;5101469;27;36863;-58
2022/08/24 09:34:15;;;;;;;6.05;2.63;;;25.60;97.00;;;;;;5102315;27;36415;-58
2022/08/24 09:37:04;;;;;;;7.50;2.55;;;25.70;96.90;;;;;;5099840;27;37723;-59
2022/08/24 09:39:38;;;;;;;5.53;2.38;;;25.80;96.60;;;;;;5101507;27;39027;-59
2022/08/24 09:42:40;;;;;;;5.90;2.75;;;25.90;96.40;;;;;;5101278;27;37071;-59
2022/08/24 09:45:29;;;;;;;8.43;2.90;;;26.10;96.00;;;;;;5092358;27;35972;-59
2022/08/24 09:48:12;;;;;;;6.55;2.50;;;26.10;95.70;;;;;;5070192;27;37306;-58
2022/08/24 09:51:00;;;;;;;6.20;2.75;;;26.30;95.50;;;;;;5100858;27;38228;-61
2022/08/24 09:54:03;;;;;;;4.28;2.45;;;26.40;95.40;;;;;;5102791;27;37384;-60
2022/08/24 09:56:44;;;;;;;7.53;2.20;;;26.50;95.60;;;;;;5091616;27;36996;-60
2022/08/24 09:59:36;;;;;;;6.28;1.90;;;26.60;95.10;;;;;;5101690;27;37673;-61
2022/08/24 10:02:21;;;;;;;6.70;2.00;;;26.70;94.70;;;;;;5102048;27;37179;-60
2022/08/24 10:05:03;;;;;;;6.05;2.10;;;26.80;94.40;;;;;;5101178;27;36635;-61
2022/08/24 10:07:39;;;;;;;5.45;2.00;;;26.90;93.50;;;;;;5101139;27;37314;-58
2022/08/24 10:10:23;;;;;;;4.25;2.05;;;26.90;93.30;;;;;;5101727;27;37043;-59
2022/08/24 10:13:02;;;;;;;6.47;2.00;;;27.00;93.50;;;;;;5101800;27;37373;-59
2022/08/24 10:15:36;;;;;;;7.03;2.25;;;27.10;93.60;;;;;;5103124;27;36049;-58
2022/08/24 10:18:34;;;;;;;8.02;1.92;;;27.20;92.80;;;;;;5103158;27;36040;-59
2022/08/24 10:21:18;;;;;;;7.90;2.30;;;27.20;92.20;;;;;;5102164;27;37314;-60
2022/08/24 10:23:57;;;;;;;6.93;1.90;;;27.30;92.00;;;;;;5103145;27;36681;-61
2022/08/24 10:26:37;;;;;;;7.00;1.95;;;27.30;91.80;;;;;;5102649;27;37565;-61
2022/08/24 10:29:30;;;;;;;6.32;1.77;;;27.30;91.40;;;;;;5101887;27;36645;-61
2022/08/24 10:32:13;;;;;;;6.72;2.25;;;27.40;91.20;;;;;;5102152;27;37287;-61
2022/08/24 10:34:54;;;;;;;3.88;2.03;;;27.50;91.00;;;;;;5101066;27;36289;-60
2022/08/24 10:37:43;;;;;;;6.40;2.30;;;27.50;90.80;;;;;;5101958;27;37053;-61
2022/08/24 10:40:30;;;;;;;5.70;2.03;;;27.60;91.60;;;;;;5102224;27;37449;-61
2022/08/24 10:43:34;;;;;;;4.30;1.90;;;27.60;91.30;;;;;;5102659;27;39929;-61
2022/08/24 10:46:31;;;;;;;5.10;1.75;;;27.70;91.40;;;;;;5100454;27;36993;-60
2022/08/24 10:49:44;;;;;;;5.35;1.95;;;27.70;91.00;;;;;;5101996;27;37727;-60
2022/08/24 10:52:45;;;;;;;5.82;1.60;;;27.70;90.90;;;;;;5099954;27;38074;-61
2022/08/24 10:55:16;;;;;;;9.52;2.35;;;27.80;90.60;;;;;;5101877;27;38146;-61
2022/08/24 10:57:59;;;;;;;4.63;1.80;;;27.80;90.50;;;;;;5102463;27;37968;-61
2022/08/24 11:00:29;;;;;;;;;;;27.80;90.00;;;;;;5100891;27;35977;-61
2022/08/24 11:03:07;;;;;;;6.22;2.08;;;27.80;91.20;;;;;;5100693;27;37645;-61
2022/08/24 11:05:40;;;;;;;4.53;1.70;;;27.70;90.20;;;;;;5099223;27;37673;-61
2022/08/24 11:08:08;;;;;;;;;;;27.70;90.60;;;;;;5101599;27;38190;-61
2022/08/24 11:10:39;;;;;;;3.10;1.30;;;27.70;91.00;;;;;;5101213;27;37405;-60
2022/08/24 11:13:21;;;;;;;7.40;1.88;;;27.80;90.90;;;;;;5101889;27;36262;-61
2022/08/24 11:15:54;;;;;;;5.97;2.50;;;27.90;90.00;;;;;;5102397;27;39499;-60
2022/08/24 11:18:22;;;;;;;5.90;1.75;;;27.90;89.50;;;;;;5101861;27;37806;-62
2022/08/24 11:20:52;;;;;;;5.25;2.00;;;27.90;88.80;;;;;;5103186;27;36771;-60
2022/08/24 11:23:22;;;;;;;5.07;2.08;;;27.90;88.00;;;;;;5103984;27;35509;-61
2022/08/24 11:25:57;;;;;;;7.45;2.50;;;27.90;87.10;;;;;;5104749;27;37330;-61
2022/08/24 11:28:31;;;;;;;5.20;1.77;;;27.80;86.50;;;;;;5104830;27;37267;-61
2022/08/24 11:31:02;;;;;;;6.15;1.83;;;27.70;87.60;;;;;;5102072;27;37352;-61
2022/08/24 11:33:33;;;;;;;4.15;1.63;;;27.60;88.20;;;;;;5104190;27;36434;-60
2022/08/24 11:36:02;;;;;;;7.63;1.80;;;27.40;87.90;;;;;;5102425;27;37380;-60
2022/08/24 11:38:33;;;;;;;5.35;1.90;;;27.30;89.00;;;;;;5104742;27;37234;-60
2022/08/24 11:41:07;;;;;;;4.78;1.83;;;27.20;90.00;;;;;;5103597;27;38377;-60
2022/08/24 11:43:43;;;;;;;5.10;2.17;;;27.10;90.40;;;;;;5103500;27;35471;-60
2022/08/24 11:46:21;;;;;;;4.70;1.88;;;27.00;90.00;;;;;;5102830;27;37531;-61
2022/08/24 11:48:59;;;;;;;4.57;1.63;;;26.90;90.90;;;;;;5101378;27;38280;-61
2022/08/24 11:51:36;;;;;;;4.43;1.50;;;26.80;90.90;;;;;;5103054;27;37482;-60
2022/08/24 11:54:23;;;;;;;4.68;1.85;;;26.80;91.10;;;;;;5104573;27;36477;-60
2022/08/24 11:57:09;;;;;;;5.78;1.88;;;26.70;91.20;;;;;;5103498;27;38676;-60
2022/08/24 11:59:46;;;;;;;3.53;1.65;;;26.70;91.30;;;;;;5103956;27;37818;-60
2022/08/24 12:02:23;;;;;;;6.47;2.08;;;26.60;91.00;;;;;;5102659;27;37291;-60
2022/08/24 12:04:56;;;;;;;6.00;2.22;;;26.60;91.00;;;;;;5104257;27;35359;-60
2022/08/24 12:07:35;;;;;;;5.05;1.70;;;26.60;91.30;;;;;;5093115;27;37625;-61
2022/08/24 12:10:26;;;;;;;2.90;1.38;;;26.60;91.50;;;;;;5099898;27;37943;-60
2022/08/24 12:13:02;;;;;;;4.40;1.50;;;26.60;91.60;;;;;;5099577;27;37500;-61
2022/08/24 12:15:38;;;;;;;4.43;1.65;;;26.80;91.90;;;;;;5100088;27;36705;-60
2022/08/24 12:18:21;;;;;;;3.58;1.52;;;26.90;91.40;;;;;;5098932;27;38405;-61
2022/08/24 12:20:50;;;;;;;5.47;1.30;;;27.10;90.70;;;;;;5099864;27;35996;-61
2022/08/24 12:23:23;;;;;;;4.97;1.27;;;27.20;90.30;;;;;;5101007;27;37521;-61
2022/08/24 12:26:03;;;;;;;;;;;27.30;90.60;;;;;;5103906;27;36516;-60
2022/08/24 12:28:36;;;;;;;2.90;1.10;;;27.30;90.50;;;;;;5104258;27;37424;-60
2022/08/24 12:31:07;;;;;;;;;;;27.30;90.30;;;;;;5102246;27;37500;-60
2022/08/24 12:33:38;;;;;;;1.83;1.17;;;27.20;90.30;;;;;;5103467;27;36624;-61
2022/08/24 12:36:16;;;;;;;4.22;1.70;;;27.20;90.80;;;;;;5102736;27;36429;-61
2022/08/24 12:38:48;;;;;;;5.75;1.83;;;27.20;90.90;;;;;;5103789;27;37143;-60
2022/08/24 12:41:20;;;;;;;3.58;1.30;;;27.30;90.80;;;;;;5102049;27;37269;-60
2022/08/24 12:43:51;;;;;;;3.88;1.70;;;27.30;90.60;;;;;;5103428;27;35792;-60
2022/08/24 12:46:23;;;;;;;3.25;1.50;;;27.30;90.30;;;;;;5103239;27;35389;-61
2022/08/24 12:48:57;;;;;;;2.50;1.20;;;27.40;90.20;;;;;;5103625;27;37495;-60
2022/08/24 12:51:30;;;;;;;4.88;1.58;;;27.50;90.40;;;;;;5103240;27;37341;-60
2022/08/24 12:54:16;;;;;;;3.15;1.38;;;27.60;90.10;;;;;;5103095;27;37036;-61
2022/08/24 12:57:03;;;;;;;2.92;1.20;;;27.60;90.00;;;;;;5103984;27;35373;-60
2022/08/24 12:59:36;;;;;;;3.53;1.40;;;27.70;88.50;;;;;;5102591;27;39033;-60
2022/08/24 13:02:08;;;;;;;3.13;1.40;;;27.70;88.50;;;;;;5101178;27;37377;-60
2022/08/24 13:04:56;;;;;;;3.30;1.58;;;27.70;89.40;;;;;;5102840;27;36518;-60
2022/08/24 13:07:29;;;;;;;2.80;1.40;;;27.60;90.30;;;;;;5104493;27;36518;-60
2022/08/24 13:10:09;;;;;;;2.75;1.33;;;27.50;89.90;;;;;;5103300;27;36536;-61
2022/08/24 13:13:07;;;;;;;3.10;1.52;;;27.40;88.40;;;;;;5102557;27;38157;-61
2022/08/24 13:15:56;;;;;;;4.68;1.40;;;27.30;88.10;;;;;;5103704;27;36885;-60